sensor_id;sensor_type;location;lat;lon;timestamp;pressure;altitude;pressure_sealevel;temperature;humidity
36378;BME280;22402;42.746;23.606;2023-05-20T00:00:03;93764.22;;;12.56;100.00
36378;BME280;22402;42.746;23.606;2023-05-20T00:02:29;93761.06;;;12.52;100.00
36378;BME280;22402;42.746;23.606;2023-05-20T00:04:55;93768.75;;;12.53;100.00
36378;BME280;22402;42.746;23.606;2023-05-20T00:07:21;93760.41;;;12.50;100.00
36378;BME280;22402;42.746;23.606;2023-05-20T00:09:47;93757.41;;;12.45;100.00
36378;BME280;22402;42.746;23.606;2023-05-20T00:12:12;93752.25;;;12.35;100.00
36378;BME280;22402;42.746;23.606;2023-05-20T00:14:38;93747.31;;;12.32;100.00
36378;BME280;22402;42.746;23.606;2023-05-20T00:17:03;93742.06;;;12.32;100.00
36378;BME280;22402;42.746;23.606;2023-05-20T00:19:28;93750.88;;;12.31;100.00
36378;BME280;22402;42.746;23.606;2023-05-20T00:21:54;93743.31;;;12.28;100.00
36378;BME280;22402;42.746;23.606;2023-05-20T00:24:22;93744.00;;;12.30;100.00
36378;BME280;22402;42.746;23.606;2023-05-20T00:26:47;93751.03;;;12.29;100.00
36378;BME280;22402;42.746;23.606;2023-05-20T00:29:12;93733.16;;;12.25;100.00
36378;BME280;22402;42.746;23.606;2023-05-20T00:31:38;93739.88;;;12.27;100.00
36378;BME280;22402;42.746;23.606;2023-05-20T00:34:03;93733.16;;;12.25;100.00
36378;BME280;22402;42.746;23.606;2023-05-20T00:36:29;93725.63;;;12.22;100.00
36378;BME280;22402;42.746;23.606;2023-05-20T00:38:55;93736.88;;;12.22;100.00
36378;BME280;22402;42.746;23.606;2023-05-20T00:41:21;93726.78;;;12.09;100.00
36378;BME280;22402;42.746;23.606;2023-05-20T00:43:46;93742.63;;;12.08;100.00
36378;BME280;22402;42.746;23.606;2023-05-20T00:46:11;93743.34;;;12.00;100.00
36378;BME280;22402;42.746;23.606;2023-05-20T00:48:42;93746.53;;;11.94;100.00
36378;BME280;22402;42.746;23.606;2023-05-20T00:51:09;93738.75;;;11.75;100.00
36378;BME280;22402;42.746;23.606;2023-05-20T00:53:34;93753.19;;;11.79;100.00
36378;BME280;22402;42.746;23.606;2023-05-20T00:56:02;93739.19;;;11.70;100.00
36378;BME280;22402;42.746;23.606;2023-05-20T00:58:28;93729.91;;;11.58;100.00
36378;BME280;22402;42.746;23.606;2023-05-20T01:00:53;93743.00;;;11.48;100.00
36378;BME280;22402;42.746;23.606;2023-05-20T01:03:19;93748.50;;;11.45;100.00
36378;BME280;22402;42.746;23.606;2023-05-20T01:05:45;93757.03;;;11.37;100.00
36378;BME280;22402;42.746;23.606;2023-05-20T01:08:10;93746.34;;;11.31;100.00
36378;BME280;22402;42.746;23.606;2023-05-20T01:10:39;93753.06;;;11.24;100.00
36378;BME280;22402;42.746;23.606;2023-05-20T01:13:08;93743.88;;;11.20;100.00
36378;BME280;22402;42.746;23.606;2023-05-20T01:15:36;93748.03;;;11.12;100.00
36378;BME280;22402;42.746;23.606;2023-05-20T01:18:07;93744.03;;;11.08;100.00
36378;BME280;22402;42.746;23.606;2023-05-20T01:20:35;93748.84;;;11.03;100.00
36378;BME280;22402;42.746;23.606;2023-05-20T01:23:01;93752.00;;;10.97;100.00
36378;BME280;22402;42.746;23.606;2023-05-20T01:25:27;93751.91;;;10.89;100.00
36378;BME280;22402;42.746;23.606;2023-05-20T01:27:54;93753.00;;;10.86;100.00
36378;BME280;22402;42.746;23.606;2023-05-20T01:30:23;93745.84;;;10.79;100.00
36378;BME280;22402;42.746;23.606;2023-05-20T01:33:00;93745.84;;;10.79;100.00
36378;BME280;22402;42.746;23.606;2023-05-20T01:35:28;93746.13;;;10.76;100.00
36378;BME280;22402;42.746;23.606;2023-05-20T01:37:55;93748.75;;;10.76;100.00
36378;BME280;22402;42.746;23.606;2023-05-20T01:40:22;93733.66;;;10.69;100.00
36378;BME280;22402;42.746;23.606;2023-05-20T01:42:48;93739.94;;;10.77;100.00
36378;BME280;22402;42.746;23.606;2023-05-20T01:45:17;93743.25;;;10.79;100.00
36378;BME280;22402;42.746;23.606;2023-05-20T01:47:46;93737.09;;;10.80;100.00
36378;BME280;22402;42.746;23.606;2023-05-20T01:50:12;93732.81;;;10.79;100.00
36378;BME280;22402;42.746;23.606;2023-05-20T01:52:37;93731.19;;;10.78;100.00
36378;BME280;22402;42.746;23.606;2023-05-20T01:55:02;93737.91;;;10.80;100.00
36378;BME280;22402;42.746;23.606;2023-05-20T01:57:28;93731.03;;;10.79;100.00
36378;BME280;22402;42.746;23.606;2023-05-20T01:59:53;93727.59;;;10.79;100.00
36378;BME280;22402;42.746;23.606;2023-05-20T02:02:19;93716.63;;;10.75;100.00
36378;BME280;22402;42.746;23.606;2023-05-20T02:04:45;93731.03;;;10.79;100.00
36378;BME280;22402;42.746;23.606;2023-05-20T02:07:17;93718.41;;;10.75;100.00
36378;BME280;22402;42.746;23.606;2023-05-20T02:09:46;93727.75;;;10.77;100.00
36378;BME280;22402;42.746;23.606;2023-05-20T02:12:12;93719.78;;;10.69;100.00
36378;BME280;22402;42.746;23.606;2023-05-20T02:14:46;93722.13;;;10.72;100.00
36378;BME280;22402;42.746;23.606;2023-05-20T02:17:13;93718.97;;;10.68;100.00
36378;BME280;22402;42.746;23.606;2023-05-20T02:19:41;93728.97;;;10.63;100.00
36378;BME280;22402;42.746;23.606;2023-05-20T02:22:07;93720.91;;;10.57;100.00
36378;BME280;22402;42.746;23.606;2023-05-20T02:24:32;93719.50;;;10.53;100.00
36378;BME280;22402;42.746;23.606;2023-05-20T02:26:58;93724.19;;;10.49;100.00
36378;BME280;22402;42.746;23.606;2023-05-20T02:29:24;93720.91;;;10.47;100.00
36378;BME280;22402;42.746;23.606;2023-05-20T02:31:49;93712.94;;;10.39;100.00
36378;BME280;22402;42.746;23.606;2023-05-20T02:34:16;93723.34;;;10.39;100.00
36378;BME280;22402;42.746;23.606;2023-05-20T02:36:41;93713.47;;;10.33;100.00
36378;BME280;22402;42.746;23.606;2023-05-20T02:39:07;93719.78;;;10.30;100.00
36378;BME280;22402;42.746;23.606;2023-05-20T02:41:33;93719.25;;;10.26;100.00
36378;BME280;22402;42.746;23.606;2023-05-20T02:43:58;93719.47;;;10.23;100.00
36378;BME280;22402;42.746;23.606;2023-05-20T02:48:56;93713.13;;;9.97;100.00
36378;BME280;22402;42.746;23.606;2023-05-20T02:51:22;93734.25;;;10.13;100.00
36378;BME280;22402;42.746;23.606;2023-05-20T02:53:47;93725.06;;;10.09;100.00
36378;BME280;22402;42.746;23.606;2023-05-20T02:56:13;93731.22;;;10.08;100.00
36378;BME280;22402;42.746;23.606;2023-05-20T02:58:38;93730.69;;;10.04;100.00
36378;BME280;22402;42.746;23.606;2023-05-20T03:01:04;93726.28;;;10.05;100.00
36378;BME280;22402;42.746;23.606;2023-05-20T03:03:29;93729.84;;;10.04;100.00
36378;BME280;22402;42.746;23.606;2023-05-20T03:05:55;93733.44;;;10.03;100.00
36378;BME280;22402;42.746;23.606;2023-05-20T03:08:21;93734.25;;;10.03;100.00
36378;BME280;22402;42.746;23.606;2023-05-20T03:10:47;93738.63;;;10.03;100.00
36378;BME280;22402;42.746;23.606;2023-05-20T03:13:12;93734.38;;;10.02;100.00
36378;BME280;22402;42.746;23.606;2023-05-20T03:15:40;93747.13;;;10.05;100.00
36378;BME280;22402;42.746;23.606;2023-05-20T03:18:06;93737.41;;;10.07;100.00
36378;BME280;22402;42.746;23.606;2023-05-20T03:20:35;93736.69;;;10.05;100.00
36378;BME280;22402;42.746;23.606;2023-05-20T03:23:04;93753.03;;;10.07;100.00
36378;BME280;22402;42.746;23.606;2023-05-20T03:25:30;93748.63;;;10.08;100.00
36378;BME280;22402;42.746;23.606;2023-05-20T03:27:56;93753.59;;;10.11;100.00
36378;BME280;22402;42.746;23.606;2023-05-20T03:30:22;93757.00;;;10.11;100.00
36378;BME280;22402;42.746;23.606;2023-05-20T03:32:48;93751.56;;;10.14;100.00
36378;BME280;22402;42.746;23.606;2023-05-20T03:35:13;93749.63;;;10.16;100.00
36378;BME280;22402;42.746;23.606;2023-05-20T03:37:39;93760.75;;;10.18;100.00
36378;BME280;22402;42.746;23.606;2023-05-20T03:40:06;93757.88;;;10.21;100.00
36378;BME280;22402;42.746;23.606;2023-05-20T03:42:32;93755.72;;;10.26;100.00
36378;BME280;22402;42.746;23.606;2023-05-20T03:44:58;93760.38;;;10.33;100.00
36378;BME280;22402;42.746;23.606;2023-05-20T03:47:25;93763.41;;;10.38;100.00
36378;BME280;22402;42.746;23.606;2023-05-20T03:49:50;93754.38;;;10.42;100.00
36378;BME280;22402;42.746;23.606;2023-05-20T03:52:16;93752.03;;;10.48;100.00
36378;BME280;22402;42.746;23.606;2023-05-20T03:54:41;93745.19;;;10.57;100.00
36378;BME280;22402;42.746;23.606;2023-05-20T03:57:06;93748.75;;;10.66;100.00
36378;BME280;22402;42.746;23.606;2023-05-20T03:59:32;93748.03;;;10.73;100.00
36378;BME280;22402;42.746;23.606;2023-05-20T04:01:57;93750.94;;;10.80;100.00
36378;BME280;22402;42.746;23.606;2023-05-20T04:04:23;93751.63;;;10.92;100.00
36378;BME280;22402;42.746;23.606;2023-05-20T04:06:48;93751.06;;;10.98;100.00
36378;BME280;22402;42.746;23.606;2023-05-20T04:09:14;93762.31;;;11.08;100.00
36378;BME280;22402;42.746;23.606;2023-05-20T04:11:39;93762.97;;;11.20;100.00
36378;BME280;22402;42.746;23.606;2023-05-20T04:14:05;93764.75;;;11.29;100.00
36378;BME280;22402;42.746;23.606;2023-05-20T04:16:31;93773.22;;;11.41;100.00
36378;BME280;22402;42.746;23.606;2023-05-20T04:18:56;93768.81;;;11.51;100.00
36378;BME280;22402;42.746;23.606;2023-05-20T04:21:23;93774.25;;;11.68;100.00
36378;BME280;22402;42.746;23.606;2023-05-20T04:23:48;93771.31;;;11.80;100.00
36378;BME280;22402;42.746;23.606;2023-05-20T04:26:14;93770.19;;;11.93;100.00
36378;BME280;22402;42.746;23.606;2023-05-20T04:28:39;93774.13;;;12.06;100.00
36378;BME280;22402;42.746;23.606;2023-05-20T04:31:06;93772.00;;;12.20;100.00
36378;BME280;22402;42.746;23.606;2023-05-20T04:33:32;93774.09;;;12.34;100.00
36378;BME280;22402;42.746;23.606;2023-05-20T04:36:02;93768.66;;;12.45;100.00
36378;BME280;22402;42.746;23.606;2023-05-20T04:41:24;93765.44;;;12.79;100.00
36378;BME280;22402;42.746;23.606;2023-05-20T04:43:51;93775.19;;;12.95;100.00
36378;BME280;22402;42.746;23.606;2023-05-20T04:46:17;93772.88;;;13.10;100.00
36378;BME280;22402;42.746;23.606;2023-05-20T04:48:44;93774.28;;;13.22;100.00
36378;BME280;22402;42.746;23.606;2023-05-20T04:51:12;93780.94;;;13.34;100.00
36378;BME280;22402;42.746;23.606;2023-05-20T04:53:37;93775.81;;;13.51;100.00
36378;BME280;22402;42.746;23.606;2023-05-20T04:56:04;93775.25;;;13.65;100.00
36378;BME280;22402;42.746;23.606;2023-05-20T04:58:30;93783.53;;;13.78;100.00
36378;BME280;22402;42.746;23.606;2023-05-20T05:00:55;93782.28;;;13.90;100.00
36378;BME280;22402;42.746;23.606;2023-05-20T05:03:21;93772.16;;;14.04;100.00
36378;BME280;22402;42.746;23.606;2023-05-20T05:05:46;93773.38;;;14.18;100.00
36378;BME280;22402;42.746;23.606;2023-05-20T05:08:12;93776.56;;;14.38;100.00
36378;BME280;22402;42.746;23.606;2023-05-20T05:10:38;93771.56;;;14.52;100.00
36378;BME280;22402;42.746;23.606;2023-05-20T05:13:03;93773.75;;;14.73;100.00
36378;BME280;22402;42.746;23.606;2023-05-20T05:15:28;93770.16;;;14.91;100.00
36378;BME280;22402;42.746;23.606;2023-05-20T05:17:54;93764.59;;;15.10;100.00
36378;BME280;22402;42.746;23.606;2023-05-20T05:20:20;93770.00;;;15.33;99.70
36378;BME280;22402;42.746;23.606;2023-05-20T05:22:46;93775.06;;;15.59;98.81
36378;BME280;22402;42.746;23.606;2023-05-20T05:25:12;93770.94;;;15.89;98.04
36378;BME280;22402;42.746;23.606;2023-05-20T05:27:37;93775.56;;;16.27;97.63
36378;BME280;22402;42.746;23.606;2023-05-20T05:30:04;93779.66;;;16.69;95.42
36378;BME280;22402;42.746;23.606;2023-05-20T05:32:30;93788.31;;;17.08;93.10
36378;BME280;22402;42.746;23.606;2023-05-20T05:34:56;93777.63;;;17.48;91.82
36378;BME280;22402;42.746;23.606;2023-05-20T05:37:21;93783.75;;;17.86;89.70
36378;BME280;22402;42.746;23.606;2023-05-20T05:39:47;93785.03;;;18.20;87.13
36378;BME280;22402;42.746;23.606;2023-05-20T05:42:12;93780.00;;;18.55;85.14
36378;BME280;22402;42.746;23.606;2023-05-20T05:44:38;93776.59;;;18.90;83.28
36378;BME280;22402;42.746;23.606;2023-05-20T05:47:04;93776.09;;;19.23;81.43
36378;BME280;22402;42.746;23.606;2023-05-20T05:49:31;93773.94;;;19.55;79.78
36378;BME280;22402;42.746;23.606;2023-05-20T05:51:56;93779.66;;;19.80;78.47
36378;BME280;22402;42.746;23.606;2023-05-20T05:54:22;93771.28;;;20.04;77.70
36378;BME280;22402;42.746;23.606;2023-05-20T05:56:47;93769.81;;;20.30;77.33
36378;BME280;22402;42.746;23.606;2023-05-20T05:59:14;93759.09;;;20.52;76.67
36378;BME280;22402;42.746;23.606;2023-05-20T06:01:39;93763.09;;;20.76;75.54
36378;BME280;22402;42.746;23.606;2023-05-20T06:04:05;93759.91;;;20.93;74.64
36378;BME280;22402;42.746;23.606;2023-05-20T06:06:30;93751.19;;;21.06;73.78
36378;BME280;22402;42.746;23.606;2023-05-20T06:08:56;93745.69;;;21.28;72.58
36378;BME280;22402;42.746;23.606;2023-05-20T06:11:24;93750.63;;;21.44;71.45
36378;BME280;22402;42.746;23.606;2023-05-20T06:13:51;93743.91;;;21.61;70.41
36378;BME280;22402;42.746;23.606;2023-05-20T06:16:16;93744.31;;;21.78;70.23
36378;BME280;22402;42.746;23.606;2023-05-20T06:18:42;93750.03;;;21.95;69.18
36378;BME280;22402;42.746;23.606;2023-05-20T06:21:08;93747.34;;;22.08;68.07
36378;BME280;22402;42.746;23.606;2023-05-20T06:23:36;93743.06;;;22.21;67.75
36378;BME280;22402;42.746;23.606;2023-05-20T06:26:01;93744.84;;;22.40;67.08
36378;BME280;22402;42.746;23.606;2023-05-20T06:28:28;93756.66;;;22.58;66.56
36378;BME280;22402;42.746;23.606;2023-05-20T06:30:53;93752.88;;;22.72;66.15
36378;BME280;22402;42.746;23.606;2023-05-20T06:33:22;93756.94;;;22.81;65.03
36378;BME280;22402;42.746;23.606;2023-05-20T06:35:50;93752.84;;;22.85;64.31
36378;BME280;22402;42.746;23.606;2023-05-20T06:38:15;93748.72;;;22.89;63.99
36378;BME280;22402;42.746;23.606;2023-05-20T06:40:41;93736.47;;;22.95;63.57
36378;BME280;22402;42.746;23.606;2023-05-20T06:43:06;93736.78;;;23.05;63.10
36378;BME280;22402;42.746;23.606;2023-05-20T06:45:32;93735.13;;;23.11;62.68
36378;BME280;22402;42.746;23.606;2023-05-20T06:47:57;93722.81;;;23.16;62.24
36378;BME280;22402;42.746;23.606;2023-05-20T06:50:23;93731.13;;;23.33;62.22
36378;BME280;22402;42.746;23.606;2023-05-20T06:52:49;93727.91;;;23.50;62.28
36378;BME280;22402;42.746;23.606;2023-05-20T06:55:15;93722.66;;;23.68;62.21
36378;BME280;22402;42.746;23.606;2023-05-20T06:57:40;93723.91;;;23.91;61.62
36378;BME280;22402;42.746;23.606;2023-05-20T07:00:06;93720.72;;;24.07;60.77
36378;BME280;22402;42.746;23.606;2023-05-20T07:02:32;93724.88;;;24.21;60.47
36378;BME280;22402;42.746;23.606;2023-05-20T07:04:58;93713.00;;;24.36;60.09
36378;BME280;22402;42.746;23.606;2023-05-20T07:07:23;93720.97;;;24.61;59.36
36378;BME280;22402;42.746;23.606;2023-05-20T07:09:49;93726.97;;;24.86;59.09
36378;BME280;22402;42.746;23.606;2023-05-20T07:12:15;93723.31;;;24.87;58.45
36378;BME280;22402;42.746;23.606;2023-05-20T07:14:41;93730.22;;;24.58;58.94
36378;BME280;22402;42.746;23.606;2023-05-20T07:17:07;93729.34;;;24.46;59.12
36378;BME280;22402;42.746;23.606;2023-05-20T07:19:33;93728.19;;;24.35;59.20
36378;BME280;22402;42.746;23.606;2023-05-20T07:21:58;93731.22;;;24.20;59.35
36378;BME280;22402;42.746;23.606;2023-05-20T07:24:25;93729.56;;;24.01;60.01
36378;BME280;22402;42.746;23.606;2023-05-20T07:26:50;93743.09;;;23.99;60.22
36378;BME280;22402;42.746;23.606;2023-05-20T07:29:15;93732.72;;;23.91;60.73
36378;BME280;22402;42.746;23.606;2023-05-20T07:31:41;93726.28;;;23.80;60.62
36378;BME280;22402;42.746;23.606;2023-05-20T07:34:06;93731.53;;;23.87;60.45
36378;BME280;22402;42.746;23.606;2023-05-20T07:36:32;93726.91;;;24.01;59.71
36378;BME280;22402;42.746;23.606;2023-05-20T07:38:57;93720.44;;;24.33;59.60
36378;BME280;22402;42.746;23.606;2023-05-20T07:41:23;93725.91;;;24.75;57.67
36378;BME280;22402;42.746;23.606;2023-05-20T07:43:49;93735.47;;;24.65;56.67
36378;BME280;22402;42.746;23.606;2023-05-20T07:46:14;93724.72;;;24.34;57.34
36378;BME280;22402;42.746;23.606;2023-05-20T07:48:40;93726.91;;;24.01;56.86
36378;BME280;22402;42.746;23.606;2023-05-20T07:51:06;93740.16;;;23.57;56.18
36378;BME280;22402;42.746;23.606;2023-05-20T07:53:31;93726.56;;;23.65;55.65
36378;BME280;22402;42.746;23.606;2023-05-20T07:55:57;93716.06;;;24.39;54.63
36378;BME280;22402;42.746;23.606;2023-05-20T07:58:23;93719.78;;;25.35;52.60
36378;BME280;22402;42.746;23.606;2023-05-20T08:00:48;93720.59;;;26.25;50.73
36378;BME280;22402;42.746;23.606;2023-05-20T08:03:14;93732.47;;;26.81;47.31
36378;BME280;22402;42.746;23.606;2023-05-20T08:05:42;93714.31;;;27.12;46.84
36378;BME280;22402;42.746;23.606;2023-05-20T08:08:08;93722.16;;;27.59;45.56
36378;BME280;22402;42.746;23.606;2023-05-20T08:10:35;93718.19;;;28.12;44.65
36378;BME280;22402;42.746;23.606;2023-05-20T08:13:00;93733.44;;;28.28;43.20
36378;BME280;22402;42.746;23.606;2023-05-20T08:15:26;93726.06;;;28.18;41.91
36378;BME280;22402;42.746;23.606;2023-05-20T08:17:51;93727.75;;;28.08;42.07
36378;BME280;22402;42.746;23.606;2023-05-20T08:20:17;93720.91;;;28.34;42.28
36378;BME280;22402;42.746;23.606;2023-05-20T08:22:43;93715.47;;;28.90;42.29
36378;BME280;22402;42.746;23.606;2023-05-20T08:25:09;93716.75;;;29.58;40.99
36378;BME280;22402;42.746;23.606;2023-05-20T08:27:35;93715.56;;;30.08;39.52
36378;BME280;22402;42.746;23.606;2023-05-20T08:30:02;93723.22;;;30.22;39.43
36378;BME280;22402;42.746;23.606;2023-05-20T08:32:27;93710.97;;;30.41;38.72
36378;BME280;22402;42.746;23.606;2023-05-20T08:34:53;93708.84;;;30.48;37.63
36378;BME280;22402;42.746;23.606;2023-05-20T08:37:19;93704.84;;;30.56;37.45
36378;BME280;22402;42.746;23.606;2023-05-20T08:39:44;93701.28;;;30.45;38.13
36378;BME280;22402;42.746;23.606;2023-05-20T08:42:12;93688.97;;;30.49;37.96
36378;BME280;22402;42.746;23.606;2023-05-20T08:44:39;93693.88;;;30.73;36.78
36378;BME280;22402;42.746;23.606;2023-05-20T08:47:06;93709.47;;;30.65;36.29
36378;BME280;22402;42.746;23.606;2023-05-20T08:49:32;93703.94;;;30.40;36.29
36378;BME280;22402;42.746;23.606;2023-05-20T08:51:59;93697.22;;;29.63;37.09
36378;BME280;22402;42.746;23.606;2023-05-20T08:54:30;93694.22;;;28.83;37.71
36378;BME280;22402;42.746;23.606;2023-05-20T08:56:57;93699.16;;;28.47;39.06
36378;BME280;22402;42.746;23.606;2023-05-20T08:59:25;93696.28;;;28.54;39.45
36378;BME280;22402;42.746;23.606;2023-05-20T09:01:50;93706.91;;;28.10;39.96
36378;BME280;22402;42.746;23.606;2023-05-20T09:04:16;93705.78;;;28.06;40.94
36378;BME280;22402;42.746;23.606;2023-05-20T09:06:45;93693.41;;;28.82;39.45
36378;BME280;22402;42.746;23.606;2023-05-20T09:09:14;93707.94;;;28.87;39.12
36378;BME280;22402;42.746;23.606;2023-05-20T09:11:40;93705.06;;;29.15;38.37
36378;BME280;22402;42.746;23.606;2023-05-20T09:14:06;93695.19;;;29.48;37.79
36378;BME280;22402;42.746;23.606;2023-05-20T09:16:32;93693.47;;;30.01;37.18
36378;BME280;22402;42.746;23.606;2023-05-20T09:18:58;93693.31;;;30.65;36.51
36378;BME280;22402;42.746;23.606;2023-05-20T09:21:29;93679.63;;;31.50;35.21
36378;BME280;22402;42.746;23.606;2023-05-20T09:23:55;93682.84;;;31.88;34.29
36378;BME280;22402;42.746;23.606;2023-05-20T09:26:27;93686.66;;;32.08;33.81
36378;BME280;22402;42.746;23.606;2023-05-20T09:28:58;93689.06;;;32.09;32.79
36378;BME280;22402;42.746;23.606;2023-05-20T09:31:27;93679.56;;;31.25;32.73
36378;BME280;22402;42.746;23.606;2023-05-20T09:33:55;93680.38;;;30.57;34.13
36378;BME280;22402;42.746;23.606;2023-05-20T09:36:22;93679.31;;;30.58;35.22
36378;BME280;22402;42.746;23.606;2023-05-20T09:38:51;93684.88;;;31.04;34.82
36378;BME280;22402;42.746;23.606;2023-05-20T09:41:23;93672.56;;;31.34;34.21
36378;BME280;22402;42.746;23.606;2023-05-20T09:43:51;93672.59;;;31.65;33.43
36378;BME280;22402;42.746;23.606;2023-05-20T09:46:18;93664.53;;;31.65;33.21
36378;BME280;22402;42.746;23.606;2023-05-20T09:48:44;93668.31;;;31.69;31.82
36378;BME280;22402;42.746;23.606;2023-05-20T09:51:11;93656.53;;;30.76;32.03
36378;BME280;22402;42.746;23.606;2023-05-20T09:53:37;93656.47;;;29.76;34.15
36378;BME280;22402;42.746;23.606;2023-05-20T09:56:03;93648.84;;;29.30;34.16
36378;BME280;22402;42.746;23.606;2023-05-20T09:58:28;93644.69;;;28.69;36.26
36378;BME280;22402;42.746;23.606;2023-05-20T10:00:54;93639.47;;;29.06;36.29
36378;BME280;22402;42.746;23.606;2023-05-20T10:03:23;93644.22;;;29.58;35.24
36378;BME280;22402;42.746;23.606;2023-05-20T10:06:10;93622.91;;;29.79;34.31
36378;BME280;22402;42.746;23.606;2023-05-20T10:14:19;93618.41;;;31.10;31.94
36378;BME280;22402;42.746;23.606;2023-05-20T10:19:28;93620.38;;;30.57;32.31
36378;BME280;22402;42.746;23.606;2023-05-20T10:22:06;93590.94;;;30.25;32.44
36378;BME280;22402;42.746;23.606;2023-05-20T10:24:42;93606.41;;;30.07;33.73
36378;BME280;22402;42.746;23.606;2023-05-20T10:27:09;93605.78;;;29.90;33.48
36378;BME280;22402;42.746;23.606;2023-05-20T10:32:08;93606.31;;;29.92;33.95
36378;BME280;22402;42.746;23.606;2023-05-20T10:34:44;93605.97;;;30.20;33.32
36378;BME280;22402;42.746;23.606;2023-05-20T10:37:22;93614.75;;;30.58;32.93
36378;BME280;22402;42.746;23.606;2023-05-20T10:39:48;93619.41;;;30.83;32.29
36378;BME280;22402;42.746;23.606;2023-05-20T10:42:14;93601.94;;;30.86;31.70
36378;BME280;22402;42.746;23.606;2023-05-20T10:44:43;93610.03;;;30.91;31.39
36378;BME280;22402;42.746;23.606;2023-05-20T10:47:09;93609.47;;;30.84;31.82
36378;BME280;22402;42.746;23.606;2023-05-20T10:49:39;93609.50;;;31.04;32.38
36378;BME280;22402;42.746;23.606;2023-05-20T10:52:07;93602.25;;;31.15;30.99
36378;BME280;22402;42.746;23.606;2023-05-20T10:54:35;93591.19;;;30.96;31.28
36378;BME280;22402;42.746;23.606;2023-05-20T10:57:05;93602.47;;;30.93;31.27
36378;BME280;22402;42.746;23.606;2023-05-20T10:59:32;93590.53;;;30.53;30.50
36378;BME280;22402;42.746;23.606;2023-05-20T11:01:59;93587.81;;;30.48;30.38
36378;BME280;22402;42.746;23.606;2023-05-20T11:04:28;93576.56;;;30.72;30.53
36378;BME280;22402;42.746;23.606;2023-05-20T11:06:54;93574.25;;;31.16;30.40
36378;BME280;22402;42.746;23.606;2023-05-20T11:09:21;93580.72;;;31.71;31.13
36378;BME280;22402;42.746;23.606;2023-05-20T11:11:47;93584.38;;;32.32;29.34
36378;BME280;22402;42.746;23.606;2023-05-20T11:14:13;93579.44;;;33.09;29.12
36378;BME280;22402;42.746;23.606;2023-05-20T11:16:40;93570.41;;;33.87;28.19
36378;BME280;22402;42.746;23.606;2023-05-20T11:19:07;93573.47;;;34.34;27.87
36378;BME280;22402;42.746;23.606;2023-05-20T11:21:33;93567.84;;;34.49;26.84
36378;BME280;22402;42.746;23.606;2023-05-20T11:23:58;93568.38;;;34.51;26.96
36378;BME280;22402;42.746;23.606;2023-05-20T11:26:24;93562.44;;;34.49;26.81
36378;BME280;22402;42.746;23.606;2023-05-20T11:28:50;93553.34;;;34.21;26.88
36378;BME280;22402;42.746;23.606;2023-05-20T11:31:17;93561.88;;;33.75;27.16
36378;BME280;22402;42.746;23.606;2023-05-20T11:33:43;93569.13;;;33.55;27.92
36378;BME280;22402;42.746;23.606;2023-05-20T11:36:09;93550.28;;;33.40;27.52
36378;BME280;22402;42.746;23.606;2023-05-20T11:38:35;93551.41;;;33.68;28.29
36378;BME280;22402;42.746;23.606;2023-05-20T11:41:00;93549.41;;;34.08;27.94
36378;BME280;22402;42.746;23.606;2023-05-20T11:43:26;93551.03;;;34.09;27.91
36378;BME280;22402;42.746;23.606;2023-05-20T11:45:59;93538.06;;;33.53;28.12
36378;BME280;22402;42.746;23.606;2023-05-20T11:48:24;93542.00;;;32.87;28.39
36378;BME280;22402;42.746;23.606;2023-05-20T11:50:52;93549.97;;;31.98;29.49
36378;BME280;22402;42.746;23.606;2023-05-20T11:53:19;93542.47;;;30.93;31.72
36378;BME280;22402;42.746;23.606;2023-05-20T11:55:52;93549.31;;;30.42;32.04
36378;BME280;22402;42.746;23.606;2023-05-20T11:58:20;93545.66;;;30.06;33.05
36378;BME280;22402;42.746;23.606;2023-05-20T12:00:46;93529.66;;;29.74;33.23
36378;BME280;22402;42.746;23.606;2023-05-20T12:03:12;93535.69;;;29.54;34.40
36378;BME280;22402;42.746;23.606;2023-05-20T12:05:38;93544.19;;;29.41;34.39
36378;BME280;22402;42.746;23.606;2023-05-20T12:08:04;93557.06;;;29.39;34.13
36378;BME280;22402;42.746;23.606;2023-05-20T12:10:30;93577.66;;;29.28;33.16
36378;BME280;22402;42.746;23.606;2023-05-20T12:12:56;93564.09;;;29.45;33.02
36378;BME280;22402;42.746;23.606;2023-05-20T12:15:21;93562.44;;;29.76;31.82
36378;BME280;22402;42.746;23.606;2023-05-20T12:17:48;93585.69;;;29.60;31.38
36378;BME280;22402;42.746;23.606;2023-05-20T12:20:15;93573.53;;;29.15;32.94
36378;BME280;22402;42.746;23.606;2023-05-20T12:22:45;93569.00;;;28.17;34.34
36378;BME280;22402;42.746;23.606;2023-05-20T12:25:11;93572.88;;;27.15;36.91
36378;BME280;22402;42.746;23.606;2023-05-20T12:27:39;93562.09;;;25.84;40.94
36378;BME280;22402;42.746;23.606;2023-05-20T12:30:05;93571.75;;;24.42;45.10
36378;BME280;22402;42.746;23.606;2023-05-20T12:32:31;93563.78;;;23.07;48.53
36378;BME280;22402;42.746;23.606;2023-05-20T12:34:57;93558.72;;;21.90;51.94
36378;BME280;22402;42.746;23.606;2023-05-20T12:37:22;93565.84;;;20.91;58.24
36378;BME280;22402;42.746;23.606;2023-05-20T12:39:48;93573.81;;;20.03;61.63
36378;BME280;22402;42.746;23.606;2023-05-20T12:42:13;93574.31;;;19.38;64.29
36378;BME280;22402;42.746;23.606;2023-05-20T12:44:42;93574.75;;;18.85;67.38
36378;BME280;22402;42.746;23.606;2023-05-20T12:47:08;93569.88;;;18.39;69.79
36378;BME280;22402;42.746;23.606;2023-05-20T12:49:33;93560.91;;;17.97;70.09
36378;BME280;22402;42.746;23.606;2023-05-20T12:51:59;93567.59;;;17.78;70.21
36378;BME280;22402;42.746;23.606;2023-05-20T12:54:24;93557.91;;;18.00;72.48
36378;BME280;22402;42.746;23.606;2023-05-20T12:56:55;93554.94;;;18.96;72.99